sensor_id;sensor_type;location;lat;lon;timestamp;temperature;humidity
10245;DHT22;5167;52.164;10.530;2022-10-15T00:00:42;17.00;57.70
10245;DHT22;5167;52.164;10.530;2022-10-15T00:03:08;17.10;57.60
10245;DHT22;5167;52.164;10.530;2022-10-15T00:05:38;17.00;57.80
10245;DHT22;5167;52.164;10.530;2022-10-15T00:08:04;17.00;57.30
10245;DHT22;5167;52.164;10.530;2022-10-15T00:10:30;17.00;57.70
10245;DHT22;5167;52.164;10.530;2022-10-15T00:12:56;16.90;57.90
10245;DHT22;5167;52.164;10.530;2022-10-15T00:15:21;16.90;57.90
10245;DHT22;5167;52.164;10.530;2022-10-15T00:17:47;16.90;58.00
10245;DHT22;5167;52.164;10.530;2022-10-15T00:20:12;16.90;58.20
10245;DHT22;5167;52.164;10.530;2022-10-15T00:22:38;16.90;58.40
10245;DHT22;5167;52.164;10.530;2022-10-15T00:25:05;17.00;58.30
10245;DHT22;5167;52.164;10.530;2022-10-15T00:27:30;16.90;58.40
10245;DHT22;5167;52.164;10.530;2022-10-15T00:29:56;16.90;58.70
10245;DHT22;5167;52.164;10.530;2022-10-15T00:32:24;17.00;58.90
10245;DHT22;5167;52.164;10.530;2022-10-15T00:34:50;16.90;59.10
10245;DHT22;5167;52.164;10.530;2022-10-15T00:37:15;17.00;59.20
10245;DHT22;5167;52.164;10.530;2022-10-15T00:39:41;17.00;59.40
10245;DHT22;5167;52.164;10.530;2022-10-15T00:42:09;17.00;60.00
10245;DHT22;5167;52.164;10.530;2022-10-15T00:53:06;16.90;61.10
10245;DHT22;5167;52.164;10.530;2022-10-15T00:55:41;16.90;62.20
10245;DHT22;5167;52.164;10.530;2022-10-15T00:58:19;17.00;62.50
10245;DHT22;5167;52.164;10.530;2022-10-15T01:00:53;17.00;62.10
10245;DHT22;5167;52.164;10.530;2022-10-15T01:03:20;16.90;62.60
10245;DHT22;5167;52.164;10.530;2022-10-15T01:05:47;17.00;62.70
10245;DHT22;5167;52.164;10.530;2022-10-15T01:08:14;16.90;63.00
10245;DHT22;5167;52.164;10.530;2022-10-15T01:14:07;17.00;63.30
10245;DHT22;5167;52.164;10.530;2022-10-15T01:16:49;17.10;63.50
10245;DHT22;5167;52.164;10.530;2022-10-15T01:22:15;16.90;63.70
10245;DHT22;5167;52.164;10.530;2022-10-15T01:25:16;16.90;63.70
10245;DHT22;5167;52.164;10.530;2022-10-15T01:27:54;16.90;63.90
10245;DHT22;5167;52.164;10.530;2022-10-15T01:30:24;16.90;64.30
10245;DHT22;5167;52.164;10.530;2022-10-15T01:33:01;16.90;64.00
10245;DHT22;5167;52.164;10.530;2022-10-15T01:40:58;16.80;67.10
10245;DHT22;5167;52.164;10.530;2022-10-15T01:43:44;16.80;67.80
10245;DHT22;5167;52.164;10.530;2022-10-15T01:46:19;16.90;69.60
10245;DHT22;5167;52.164;10.530;2022-10-15T01:48:48;16.80;70.60
10245;DHT22;5167;52.164;10.530;2022-10-15T01:51:16;16.80;70.40
10245;DHT22;5167;52.164;10.530;2022-10-15T01:53:43;16.90;70.90
10245;DHT22;5167;52.164;10.530;2022-10-15T01:56:13;16.80;70.90
10245;DHT22;5167;52.164;10.530;2022-10-15T01:58:41;16.90;72.50
10245;DHT22;5167;52.164;10.530;2022-10-15T02:01:07;16.90;72.80
10245;DHT22;5167;52.164;10.530;2022-10-15T02:03:46;16.90;72.60
10245;DHT22;5167;52.164;10.530;2022-10-15T02:06:56;16.90;72.30
10245;DHT22;5167;52.164;10.530;2022-10-15T02:14:40;16.90;73.10
10245;DHT22;5167;52.164;10.530;2022-10-15T02:17:09;16.90;73.40
10245;DHT22;5167;52.164;10.530;2022-10-15T02:19:42;16.80;73.70
10245;DHT22;5167;52.164;10.530;2022-10-15T02:22:15;16.80;74.00
10245;DHT22;5167;52.164;10.530;2022-10-15T02:24:49;16.90;74.30
10245;DHT22;5167;52.164;10.530;2022-10-15T02:27:17;16.90;74.30
10245;DHT22;5167;52.164;10.530;2022-10-15T02:29:45;17.00;74.30
10245;DHT22;5167;52.164;10.530;2022-10-15T02:32:13;17.00;74.30
10245;DHT22;5167;52.164;10.530;2022-10-15T02:34:40;16.90;74.10
10245;DHT22;5167;52.164;10.530;2022-10-15T02:37:06;17.00;74.20
10245;DHT22;5167;52.164;10.530;2022-10-15T02:39:32;17.00;74.20
10245;DHT22;5167;52.164;10.530;2022-10-15T02:41:59;16.90;74.40
10245;DHT22;5167;52.164;10.530;2022-10-15T02:44:25;16.90;74.10
10245;DHT22;5167;52.164;10.530;2022-10-15T02:46:50;17.00;74.00
10245;DHT22;5167;52.164;10.530;2022-10-15T02:49:16;17.00;74.20
10245;DHT22;5167;52.164;10.530;2022-10-15T02:51:41;17.00;73.90
10245;DHT22;5167;52.164;10.530;2022-10-15T02:54:07;17.00;73.70
10245;DHT22;5167;52.164;10.530;2022-10-15T02:56:33;17.00;73.50
10245;DHT22;5167;52.164;10.530;2022-10-15T02:58:59;17.00;73.50
10245;DHT22;5167;52.164;10.530;2022-10-15T03:01:25;16.90;73.90
10245;DHT22;5167;52.164;10.530;2022-10-15T03:03:51;17.00;74.10
10245;DHT22;5167;52.164;10.530;2022-10-15T03:06:16;17.00;74.00
10245;DHT22;5167;52.164;10.530;2022-10-15T03:08:42;17.00;73.90
10245;DHT22;5167;52.164;10.530;2022-10-15T03:11:08;17.00;74.30
10245;DHT22;5167;52.164;10.530;2022-10-15T03:13:36;16.90;74.20
10245;DHT22;5167;52.164;10.530;2022-10-15T03:16:05;17.00;73.40
10245;DHT22;5167;52.164;10.530;2022-10-15T03:18:31;17.00;73.20
10245;DHT22;5167;52.164;10.530;2022-10-15T03:20:57;17.00;73.00
10245;DHT22;5167;52.164;10.530;2022-10-15T03:23:23;17.00;72.10
10245;DHT22;5167;52.164;10.530;2022-10-15T03:25:49;17.00;72.50
10245;DHT22;5167;52.164;10.530;2022-10-15T03:28:15;17.00;71.60
10245;DHT22;5167;52.164;10.530;2022-10-15T03:30:41;17.00;71.80
10245;DHT22;5167;52.164;10.530;2022-10-15T03:33:07;17.00;71.00
10245;DHT22;5167;52.164;10.530;2022-10-15T03:35:32;17.00;71.70
10245;DHT22;5167;52.164;10.530;2022-10-15T03:37:58;17.00;71.80
10245;DHT22;5167;52.164;10.530;2022-10-15T03:40:23;17.00;71.90
10245;DHT22;5167;52.164;10.530;2022-10-15T03:42:50;17.00;71.70
10245;DHT22;5167;52.164;10.530;2022-10-15T03:45:16;17.00;71.40
10245;DHT22;5167;52.164;10.530;2022-10-15T03:47:42;16.90;71.00
10245;DHT22;5167;52.164;10.530;2022-10-15T03:50:08;16.90;70.50
10245;DHT22;5167;52.164;10.530;2022-10-15T03:52:34;16.80;70.50
10245;DHT22;5167;52.164;10.530;2022-10-15T03:55:00;16.80;69.20
10245;DHT22;5167;52.164;10.530;2022-10-15T03:57:26;16.80;69.80
10245;DHT22;5167;52.164;10.530;2022-10-15T03:59:51;16.80;69.10
10245;DHT22;5167;52.164;10.530;2022-10-15T04:02:17;16.80;68.70
10245;DHT22;5167;52.164;10.530;2022-10-15T04:04:42;16.70;67.60
10245;DHT22;5167;52.164;10.530;2022-10-15T04:07:08;16.70;68.30
10245;DHT22;5167;52.164;10.530;2022-10-15T04:09:33;16.70;66.50
10245;DHT22;5167;52.164;10.530;2022-10-15T04:11:59;16.60;65.70
10245;DHT22;5167;52.164;10.530;2022-10-15T04:14:24;16.60;64.40
10245;DHT22;5167;52.164;10.530;2022-10-15T04:16:50;16.50;64.00
10245;DHT22;5167;52.164;10.530;2022-10-15T04:19:15;16.50;64.40
10245;DHT22;5167;52.164;10.530;2022-10-15T04:21:42;16.50;64.30
10245;DHT22;5167;52.164;10.530;2022-10-15T04:24:08;16.30;64.80
10245;DHT22;5167;52.164;10.530;2022-10-15T04:26:33;16.30;65.30
10245;DHT22;5167;52.164;10.530;2022-10-15T04:28:59;16.40;65.50
10245;DHT22;5167;52.164;10.530;2022-10-15T04:31:24;16.30;64.70
10245;DHT22;5167;52.164;10.530;2022-10-15T04:33:50;16.30;64.60
10245;DHT22;5167;52.164;10.530;2022-10-15T04:36:15;16.20;64.70
10245;DHT22;5167;52.164;10.530;2022-10-15T04:38:51;16.10;64.60
10245;DHT22;5167;52.164;10.530;2022-10-15T04:41:17;16.20;64.80
10245;DHT22;5167;52.164;10.530;2022-10-15T04:43:42;16.00;64.60
10245;DHT22;5167;52.164;10.530;2022-10-15T04:46:08;16.00;64.70
10245;DHT22;5167;52.164;10.530;2022-10-15T04:48:35;16.00;64.70
10245;DHT22;5167;52.164;10.530;2022-10-15T04:51:11;16.00;64.60
10245;DHT22;5167;52.164;10.530;2022-10-15T04:53:36;15.90;65.60
10245;DHT22;5167;52.164;10.530;2022-10-15T04:56:04;15.90;65.80
10245;DHT22;5167;52.164;10.530;2022-10-15T04:58:31;15.90;65.90
10245;DHT22;5167;52.164;10.530;2022-10-15T05:01:06;15.80;65.90
10245;DHT22;5167;52.164;10.530;2022-10-15T05:03:33;15.80;65.80
10245;DHT22;5167;52.164;10.530;2022-10-15T05:06:00;15.80;65.60
10245;DHT22;5167;52.164;10.530;2022-10-15T05:08:28;15.80;66.40
10245;DHT22;5167;52.164;10.530;2022-10-15T05:10:53;15.70;66.90
10245;DHT22;5167;52.164;10.530;2022-10-15T05:13:19;15.80;66.70
10245;DHT22;5167;52.164;10.530;2022-10-15T05:15:44;15.70;66.50
10245;DHT22;5167;52.164;10.530;2022-10-15T05:18:10;15.70;67.10
10245;DHT22;5167;52.164;10.530;2022-10-15T05:20:36;15.70;67.80
10245;DHT22;5167;52.164;10.530;2022-10-15T05:23:02;15.70;68.00
10245;DHT22;5167;52.164;10.530;2022-10-15T05:25:28;15.70;68.10
10245;DHT22;5167;52.164;10.530;2022-10-15T05:27:54;15.70;68.80
10245;DHT22;5167;52.164;10.530;2022-10-15T05:30:20;15.60;69.20
10245;DHT22;5167;52.164;10.530;2022-10-15T05:32:45;15.70;68.80
10245;DHT22;5167;52.164;10.530;2022-10-15T05:35:15;15.70;69.60
10245;DHT22;5167;52.164;10.530;2022-10-15T05:37:40;15.70;70.00
10245;DHT22;5167;52.164;10.530;2022-10-15T05:40:06;15.70;69.50
10245;DHT22;5167;52.164;10.530;2022-10-15T05:42:32;15.60;69.20
10245;DHT22;5167;52.164;10.530;2022-10-15T05:44:57;15.70;70.30
10245;DHT22;5167;52.164;10.530;2022-10-15T05:47:23;15.60;69.70
10245;DHT22;5167;52.164;10.530;2022-10-15T05:49:49;15.60;70.30
10245;DHT22;5167;52.164;10.530;2022-10-15T05:52:14;15.70;70.00
10245;DHT22;5167;52.164;10.530;2022-10-15T05:54:41;15.50;69.80
10245;DHT22;5167;52.164;10.530;2022-10-15T05:57:06;15.60;69.60
10245;DHT22;5167;52.164;10.530;2022-10-15T05:59:32;15.50;69.50
10245;DHT22;5167;52.164;10.530;2022-10-15T06:01:57;15.50;70.30
10245;DHT22;5167;52.164;10.530;2022-10-15T06:04:23;15.50;69.50
10245;DHT22;5167;52.164;10.530;2022-10-15T06:06:48;15.50;69.70
10245;DHT22;5167;52.164;10.530;2022-10-15T06:09:14;15.40;69.80
10245;DHT22;5167;52.164;10.530;2022-10-15T06:11:40;15.40;69.70
10245;DHT22;5167;52.164;10.530;2022-10-15T06:14:05;15.50;68.70
10245;DHT22;5167;52.164;10.530;2022-10-15T06:16:31;15.40;69.90
10245;DHT22;5167;52.164;10.530;2022-10-15T06:18:57;15.40;68.70
10245;DHT22;5167;52.164;10.530;2022-10-15T06:21:23;15.40;70.20
10245;DHT22;5167;52.164;10.530;2022-10-15T06:23:48;15.30;70.90
10245;DHT22;5167;52.164;10.530;2022-10-15T06:26:14;15.40;71.10
10245;DHT22;5167;52.164;10.530;2022-10-15T06:28:39;15.40;71.20
10245;DHT22;5167;52.164;10.530;2022-10-15T06:31:05;15.40;72.10
10245;DHT22;5167;52.164;10.530;2022-10-15T06:33:31;15.40;72.20
10245;DHT22;5167;52.164;10.530;2022-10-15T06:36:08;15.40;73.30
10245;DHT22;5167;52.164;10.530;2022-10-15T06:38:34;15.40;73.70
10245;DHT22;5167;52.164;10.530;2022-10-15T06:41:05;15.60;75.80
10245;DHT22;5167;52.164;10.530;2022-10-15T06:43:31;15.40;75.80
10245;DHT22;5167;52.164;10.530;2022-10-15T06:45:58;15.40;77.40
10245;DHT22;5167;52.164;10.530;2022-10-15T06:48:24;15.40;77.70
10245;DHT22;5167;52.164;10.530;2022-10-15T06:50:49;15.50;78.60
10245;DHT22;5167;52.164;10.530;2022-10-15T06:53:15;15.50;78.90
10245;DHT22;5167;52.164;10.530;2022-10-15T06:55:41;15.50;80.80
10245;DHT22;5167;52.164;10.530;2022-10-15T06:58:07;15.60;81.20
10245;DHT22;5167;52.164;10.530;2022-10-15T07:00:33;15.50;82.90
10245;DHT22;5167;52.164;10.530;2022-10-15T07:03:05;15.60;84.60
10245;DHT22;5167;52.164;10.530;2022-10-15T07:05:31;15.60;86.40
10245;DHT22;5167;52.164;10.530;2022-10-15T07:07:58;15.60;86.70
10245;DHT22;5167;52.164;10.530;2022-10-15T07:10:25;15.60;88.60
10245;DHT22;5167;52.164;10.530;2022-10-15T07:12:51;15.70;89.90
10245;DHT22;5167;52.164;10.530;2022-10-15T07:15:18;15.70;90.80
10245;DHT22;5167;52.164;10.530;2022-10-15T07:17:48;15.70;92.40
10245;DHT22;5167;52.164;10.530;2022-10-15T07:20:14;15.70;94.60
10245;DHT22;5167;52.164;10.530;2022-10-15T07:22:40;15.80;95.80
10245;DHT22;5167;52.164;10.530;2022-10-15T07:25:06;15.80;97.10
10245;DHT22;5167;52.164;10.530;2022-10-15T07:27:31;15.90;97.90
10245;DHT22;5167;52.164;10.530;2022-10-15T07:29:57;15.90;99.90
10245;DHT22;5167;52.164;10.530;2022-10-15T07:32:22;15.90;99.90
10245;DHT22;5167;52.164;10.530;2022-10-15T07:34:48;16.00;99.90
10245;DHT22;5167;52.164;10.530;2022-10-15T07:37:13;16.00;99.90
10245;DHT22;5167;52.164;10.530;2022-10-15T07:39:39;16.10;99.90
10245;DHT22;5167;52.164;10.530;2022-10-15T07:42:04;16.20;99.90
10245;DHT22;5167;52.164;10.530;2022-10-15T07:44:30;16.20;99.90
10245;DHT22;5167;52.164;10.530;2022-10-15T07:46:55;16.20;99.90
10245;DHT22;5167;52.164;10.530;2022-10-15T07:49:21;16.20;99.90
10245;DHT22;5167;52.164;10.530;2022-10-15T07:51:46;16.30;99.90
10245;DHT22;5167;52.164;10.530;2022-10-15T07:54:12;16.40;99.90
10245;DHT22;5167;52.164;10.530;2022-10-15T07:56:37;16.50;99.90
10245;DHT22;5167;52.164;10.530;2022-10-15T07:59:03;16.60;99.90
10245;DHT22;5167;52.164;10.530;2022-10-15T08:01:28;16.60;99.90
10245;DHT22;5167;52.164;10.530;2022-10-15T08:03:54;16.70;99.90
10245;DHT22;5167;52.164;10.530;2022-10-15T08:06:19;16.70;99.90
10245;DHT22;5167;52.164;10.530;2022-10-15T08:08:45;16.80;99.90
10245;DHT22;5167;52.164;10.530;2022-10-15T08:11:13;16.90;99.90
10245;DHT22;5167;52.164;10.530;2022-10-15T08:13:39;16.90;99.90
10245;DHT22;5167;52.164;10.530;2022-10-15T08:16:07;16.90;99.90
10245;DHT22;5167;52.164;10.530;2022-10-15T08:18:33;16.90;99.90
10245;DHT22;5167;52.164;10.530;2022-10-15T08:20:59;17.00;99.90
10245;DHT22;5167;52.164;10.530;2022-10-15T08:23:25;17.00;99.90
10245;DHT22;5167;52.164;10.530;2022-10-15T08:25:51;17.10;99.90
10245;DHT22;5167;52.164;10.530;2022-10-15T08:28:17;17.10;99.90
10245;DHT22;5167;52.164;10.530;2022-10-15T08:30:42;17.20;99.90
10245;DHT22;5167;52.164;10.530;2022-10-15T08:33:08;17.30;99.90
10245;DHT22;5167;52.164;10.530;2022-10-15T08:35:33;17.40;99.90
10245;DHT22;5167;52.164;10.530;2022-10-15T08:38:01;17.40;99.90
10245;DHT22;5167;52.164;10.530;2022-10-15T08:40:27;17.50;99.90
10245;DHT22;5167;52.164;10.530;2022-10-15T08:42:54;17.50;99.90
10245;DHT22;5167;52.164;10.530;2022-10-15T08:45:27;17.60;99.90
10245;DHT22;5167;52.164;10.530;2022-10-15T08:48:08;17.50;99.90
10245;DHT22;5167;52.164;10.530;2022-10-15T08:50:58;17.70;99.90
10245;DHT22;5167;52.164;10.530;2022-10-15T08:53:27;17.70;99.90
10245;DHT22;5167;52.164;10.530;2022-10-15T08:56:02;17.70;99.90
10245;DHT22;5167;52.164;10.530;2022-10-15T09:01:03;17.90;99.90
10245;DHT22;5167;52.164;10.530;2022-10-15T09:04:00;17.90;99.90
10245;DHT22;5167;52.164;10.530;2022-10-15T09:06:37;18.00;99.90
10245;DHT22;5167;52.164;10.530;2022-10-15T09:11:58;18.00;97.30
10245;DHT22;5167;52.164;10.530;2022-10-15T09:14:30;18.10;93.20
10245;DHT22;5167;52.164;10.530;2022-10-15T09:17:00;18.10;92.00
10245;DHT22;5167;52.164;10.530;2022-10-15T09:19:29;18.10;89.30
10245;DHT22;5167;52.164;10.530;2022-10-15T09:21:56;18.20;87.10
10245;DHT22;5167;52.164;10.530;2022-10-15T09:24:27;18.20;84.20
10245;DHT22;5167;52.164;10.530;2022-10-15T09:26:59;18.20;82.10
10245;DHT22;5167;52.164;10.530;2022-10-15T09:34:58;18.40;76.20
10245;DHT22;5167;52.164;10.530;2022-10-15T09:37:46;18.50;75.40
10245;DHT22;5167;52.164;10.530;2022-10-15T09:40:36;18.50;75.30
10245;DHT22;5167;52.164;10.530;2022-10-15T09:43:04;18.50;70.90
10245;DHT22;5167;52.164;10.530;2022-10-15T09:45:30;18.60;69.10
10245;DHT22;5167;52.164;10.530;2022-10-15T09:47:58;18.50;67.40
10245;DHT22;5167;52.164;10.530;2022-10-15T09:50:38;18.60;67.00
10245;DHT22;5167;52.164;10.530;2022-10-15T09:58:23;18.70;62.00
10245;DHT22;5167;52.164;10.530;2022-10-15T10:00:59;18.80;58.10
10245;DHT22;5167;52.164;10.530;2022-10-15T10:03:28;18.90;56.00
10245;DHT22;5167;52.164;10.530;2022-10-15T10:06:12;18.90;55.70
10245;DHT22;5167;52.164;10.530;2022-10-15T10:08:46;19.00;51.80
10245;DHT22;5167;52.164;10.530;2022-10-15T10:11:13;19.10;52.10
10245;DHT22;5167;52.164;10.530;2022-10-15T10:16:12;19.30;44.60
10245;DHT22;5167;52.164;10.530;2022-10-15T10:18:38;19.40;44.10
10245;DHT22;5167;52.164;10.530;2022-10-15T10:21:08;19.40;43.10
10245;DHT22;5167;52.164;10.530;2022-10-15T10:23:44;19.50;42.70
10245;DHT22;5167;52.164;10.530;2022-10-15T10:26:10;19.60;41.30
10245;DHT22;5167;52.164;10.530;2022-10-15T10:31:13;19.50;39.40
10245;DHT22;5167;52.164;10.530;2022-10-15T10:33:45;19.60;40.00
10245;DHT22;5167;52.164;10.530;2022-10-15T10:36:30;19.60;38.40
10245;DHT22;5167;52.164;10.530;2022-10-15T10:41:56;19.80;38.20
10245;DHT22;5167;52.164;10.530;2022-10-15T10:44:27;19.90;37.50
10245;DHT22;5167;52.164;10.530;2022-10-15T10:47:13;20.00;36.30
10245;DHT22;5167;52.164;10.530;2022-10-15T10:49:49;20.10;36.10
10245;DHT22;5167;52.164;10.530;2022-10-15T10:52:29;20.30;35.20
10245;DHT22;5167;52.164;10.530;2022-10-15T10:55:09;20.30;34.70
10245;DHT22;5167;52.164;10.530;2022-10-15T11:03:24;20.70;31.30
10245;DHT22;5167;52.164;10.530;2022-10-15T11:06:40;20.60;30.10
10245;DHT22;5167;52.164;10.530;2022-10-15T11:09:06;20.70;29.50
10245;DHT22;5167;52.164;10.530;2022-10-15T11:14:53;20.80;28.10
10245;DHT22;5167;52.164;10.530;2022-10-15T11:17:29;20.80;27.50
10245;DHT22;5167;52.164;10.530;2022-10-15T11:22:55;20.70;27.50
10245;DHT22;5167;52.164;10.530;2022-10-15T11:25:45;20.60;26.80
10245;DHT22;5167;52.164;10.530;2022-10-15T11:31:27;20.60;27.30
10245;DHT22;5167;52.164;10.530;2022-10-15T11:33:58;20.50;25.80
10245;DHT22;5167;52.164;10.530;2022-10-15T11:36:31;20.50;26.00
10245;DHT22;5167;52.164;10.530;2022-10-15T11:42:17;20.60;23.90
10245;DHT22;5167;52.164;10.530;2022-10-15T11:47:53;20.60;22.80
10245;DHT22;5167;52.164;10.530;2022-10-15T11:50:34;20.60;20.30
10245;DHT22;5167;52.164;10.530;2022-10-15T11:53:17;20.50;21.60
10245;DHT22;5167;52.164;10.530;2022-10-15T11:55:56;20.40;20.50
10245;DHT22;5167;52.164;10.530;2022-10-15T11:58:38;20.40;21.50
10245;DHT22;5167;52.164;10.530;2022-10-15T12:01:20;20.40;22.00
10245;DHT22;5167;52.164;10.530;2022-10-15T12:03:58;20.30;21.80
10245;DHT22;5167;52.164;10.530;2022-10-15T12:06:27;20.50;21.70
10245;DHT22;5167;52.164;10.530;2022-10-15T12:08:55;20.40;19.30
10245;DHT22;5167;52.164;10.530;2022-10-15T12:16:45;20.40;17.40
10245;DHT22;5167;52.164;10.530;2022-10-15T12:21:59;20.50;16.90
10245;DHT22;5167;52.164;10.530;2022-10-15T12:32:29;20.60;17.80
10245;DHT22;5167;52.164;10.530;2022-10-15T12:35:00;20.50;18.20
10245;DHT22;5167;52.164;10.530;2022-10-15T12:37:28;20.50;18.60
10245;DHT22;5167;52.164;10.530;2022-10-15T12:40:00;20.50;19.00
10245;DHT22;5167;52.164;10.530;2022-10-15T12:42:33;20.60;19.00
10245;DHT22;5167;52.164;10.530;2022-10-15T12:45:02;20.50;18.10
10245;DHT22;5167;52.164;10.530;2022-10-15T12:47:55;20.60;18.40
10245;DHT22;5167;52.164;10.530;2022-10-15T12:50:36;20.60;16.90
10245;DHT22;5167;52.164;10.530;2022-10-15T12:53:30;20.60;17.10
10245;DHT22;5167;52.164;10.530;2022-10-15T12:58:43;20.60;15.40
10245;DHT22;5167;52.164;10.530;2022-10-15T13:03:43;20.50;13.70
10245;DHT22;5167;52.164;10.530;2022-10-15T13:08:43;20.50;14.60
10245;DHT22;5167;52.164;10.530;2022-10-15T13:11:18;20.60;14.10
10245;DHT22;5167;52.164;10.530;2022-10-15T13:13:45;20.50;14.60
10245;DHT22;5167;52.164;10.530;2022-10-15T13:16:12;20.50;13.00
10245;DHT22;5167;52.164;10.530;2022-10-15T13:18:40;20.50;13.10
10245;DHT22;5167;52.164;10.530;2022-10-15T13:21:07;20.60;13.40
10245;DHT22;5167;52.164;10.530;2022-10-15T13:23:34;20.60;14.00
10245;DHT22;5167;52.164;10.530;2022-10-15T13:26:11;20.50;15.00
10245;DHT22;5167;52.164;10.530;2022-10-15T13:28:39;20.70;13.80
10245;DHT22;5167;52.164;10.530;2022-10-15T13:31:27;20.70;14.80
10245;DHT22;5167;52.164;10.530;2022-10-15T13:33:57;20.60;15.00
10245;DHT22;5167;52.164;10.530;2022-10-15T13:36:26;20.70;15.80
10245;DHT22;5167;52.164;10.530;2022-10-15T13:38:57;20.60;15.50
10245;DHT22;5167;52.164;10.530;2022-10-15T13:41:25;20.60;15.80
10245;DHT22;5167;52.164;10.530;2022-10-15T13:43:53;20.60;15.60
10245;DHT22;5167;52.164;10.530;2022-10-15T13:46:26;20.50;14.10
10245;DHT22;5167;52.164;10.530;2022-10-15T13:49:18;20.50;15.00
10245;DHT22;5167;52.164;10.530;2022-10-15T13:51:47;20.50;14.60
10245;DHT22;5167;52.164;10.530;2022-10-15T13:54:23;20.60;15.20
10245;DHT22;5167;52.164;10.530;2022-10-15T13:56:54;20.50;15.40
10245;DHT22;5167;52.164;10.530;2022-10-15T13:59:23;20.60;14.90
10245;DHT22;5167;52.164;10.530;2022-10-15T14:01:56;20.50;14.80
10245;DHT22;5167;52.164;10.530;2022-10-15T14:04:29;20.50;14.30
10245;DHT22;5167;52.164;10.530;2022-10-15T14:06:58;20.60;14.40
10245;DHT22;5167;52.164;10.530;2022-10-15T14:09:36;20.60;13.40
10245;DHT22;5167;52.164;10.530;2022-10-15T14:12:05;20.60;14.00
10245;DHT22;5167;52.164;10.530;2022-10-15T14:14:39;20.70;13.90
10245;DHT22;5167;52.164;10.530;2022-10-15T14:17:11;20.70;14.80
10245;DHT22;5167;52.164;10.530;2022-10-15T14:19:45;20.80;14.60
10245;DHT22;5167;52.164;10.530;2022-10-15T14:22:21;20.70;14.20
10245;DHT22;5167;52.164;10.530;2022-10-15T14:24:51;20.80;13.90
10245;DHT22;5167;52.164;10.530;2022-10-15T14:27:22;20.80;13.90
10245;DHT22;5167;52.164;10.530;2022-10-15T14:29:53;20.80;13.60
10245;DHT22;5167;52.164;10.530;2022-10-15T14:32:45;20.70;13.10
10245;DHT22;5167;52.164;10.530;2022-10-15T14:35:24;20.70;13.60
10245;DHT22;5167;52.164;10.530;2022-10-15T14:38:00;20.70;13.70
10245;DHT22;5167;52.164;10.530;2022-10-15T14:40:27;20.70;14.00
10245;DHT22;5167;52.164;10.530;2022-10-15T14:43:05;20.70;13.70
10245;DHT22;5167;52.164;10.530;2022-10-15T14:45:40;20.70;14.70
10245;DHT22;5167;52.164;10.530;2022-10-15T14:48:19;20.80;15.00
10245;DHT22;5167;52.164;10.530;2022-10-15T14:50:46;20.80;15.70
10245;DHT22;5167;52.164;10.530;2022-10-15T14:53:17;20.70;16.00
10245;DHT22;5167;52.164;10.530;2022-10-15T14:55:55;20.60;17.20
10245;DHT22;5167;52.164;10.530;2022-10-15T14:58:22;20.60;16.30
10245;DHT22;5167;52.164;10.530;2022-10-15T15:01:00;20.60;16.60
10245;DHT22;5167;52.164;10.530;2022-10-15T15:03:30;20.50;16.80
10245;DHT22;5167;52.164;10.530;2022-10-15T15:05:56;20.50;17.50
10245;DHT22;5167;52.164;10.530;2022-10-15T15:08:23;20.50;17.70
10245;DHT22;5167;52.164;10.530;2022-10-15T15:10:50;20.50;19.70
10245;DHT22;5167;52.164;10.530;2022-10-15T15:13:24;20.50;19.40
10245;DHT22;5167;52.164;10.530;2022-10-15T15:15:50;20.50;18.40
10245;DHT22;5167;52.164;10.530;2022-10-15T15:18:16;20.50;18.30
10245;DHT22;5167;52.164;10.530;2022-10-15T15:20:42;20.50;18.20
10245;DHT22;5167;52.164;10.530;2022-10-15T15:23:17;20.50;19.70
10245;DHT22;5167;52.164;10.530;2022-10-15T15:25:43;20.40;19.50
10245;DHT22;5167;52.164;10.530;2022-10-15T15:28:12;20.40;19.00
10245;DHT22;5167;52.164;10.530;2022-10-15T15:30:40;20.40;19.60
10245;DHT22;5167;52.164;10.530;2022-10-15T15:33:13;20.40;19.90
10245;DHT22;5167;52.164;10.530;2022-10-15T15:35:46;20.40;20.80
10245;DHT22;5167;52.164;10.530;2022-10-15T15:38:16;20.40;19.70
10245;DHT22;5167;52.164;10.530;2022-10-15T15:40:43;20.40;21.10
10245;DHT22;5167;52.164;10.530;2022-10-15T15:43:11;20.40;21.00
10245;DHT22;5167;52.164;10.530;2022-10-15T15:45:37;20.40;21.10
10245;DHT22;5167;52.164;10.530;2022-10-15T15:48:03;20.40;21.20
10245;DHT22;5167;52.164;10.530;2022-10-15T15:50:29;20.30;21.40
10245;DHT22;5167;52.164;10.530;2022-10-15T15:52:55;20.40;21.10
10245;DHT22;5167;52.164;10.530;2022-10-15T15:55:21;20.40;20.50
10245;DHT22;5167;52.164;10.530;2022-10-15T15:57:46;20.40;22.10
10245;DHT22;5167;52.164;10.530;2022-10-15T16:00:12;20.40;22.20
10245;DHT22;5167;52.164;10.530;2022-10-15T16:02:38;20.40;22.20
10245;DHT22;5167;52.164;10.530;2022-10-15T16:05:05;20.40;22.00
10245;DHT22;5167;52.164;10.530;2022-10-15T16:07:31;20.40;22.40
10245;DHT22;5167;52.164;10.530;2022-10-15T16:09:57;20.30;22.40
10245;DHT22;5167;52.164;10.530;2022-10-15T16:12:22;20.30;22.90
10245;DHT22;5167;52.164;10.530;2022-10-15T16:14:48;20.40;22.80
10245;DHT22;5167;52.164;10.530;2022-10-15T16:17:14;20.40;23.20
10245;DHT22;5167;52.164;10.530;2022-10-15T16:19:39;20.30;23.00
10245;DHT22;5167;52.164;10.530;2022-10-15T16:22:05;20.30;23.50
10245;DHT22;5167;52.164;10.530;2022-10-15T16:24:31;20.30;23.80
10245;DHT22;5167;52.164;10.530;2022-10-15T16:26:56;20.30;24.00
10245;DHT22;5167;52.164;10.530;2022-10-15T16:29:22;20.20;24.20
10245;DHT22;5167;52.164;10.530;2022-10-15T16:31:47;20.20;24.30
10245;DHT22;5167;52.164;10.530;2022-10-15T16:34:13;20.20;24.30
10245;DHT22;5167;52.164;10.530;2022-10-15T16:36:38;20.20;24.30
10245;DHT22;5167;52.164;10.530;2022-10-15T16:39:04;20.10;24.80
10245;DHT22;5167;52.164;10.530;2022-10-15T16:41:30;20.10;25.00
10245;DHT22;5167;52.164;10.530;2022-10-15T16:43:55;20.00;25.40
10245;DHT22;5167;52.164;10.530;2022-10-15T16:46:21;20.00;26.00
10245;DHT22;5167;52.164;10.530;2022-10-15T16:48:54;20.00;26.00
10245;DHT22;5167;52.164;10.530;2022-10-15T16:51:20;20.00;26.00
10245;DHT22;5167;52.164;10.530;2022-10-15T16:53:47;20.00;26.60
10245;DHT22;5167;52.164;10.530;2022-10-15T16:56:23;19.90;26.80
10245;DHT22;5167;52.164;10.530;2022-10-15T16:58:50;20.00;26.90
10245;DHT22;5167;52.164;10.530;2022-10-15T17:01:18;19.90;27.10
10245;DHT22;5167;52.164;10.530;2022-10-15T17:03:45;20.00;27.50
10245;DHT22;5167;52.164;10.530;2022-10-15T17:06:16;19.90;27.20
10245;DHT22;5167;52.164;10.530;2022-10-15T17:08:50;20.10;28.00
10245;DHT22;5167;52.164;10.530;2022-10-15T17:11:20;19.80;27.90
10245;DHT22;5167;52.164;10.530;2022-10-15T17:13:46;19.90;28.50
10245;DHT22;5167;52.164;10.530;2022-10-15T17:16:33;19.90;29.60
10245;DHT22;5167;52.164;10.530;2022-10-15T17:19:00;19.80;30.10